EDLW

Dortmund Airport

Dortmund, Germany
METAR EDLW 210520Z VRB02KT CAVOK 17/15 Q1021
Observed Flight Rules
Aug-21 @ 05:20 UTC (12 hours ago) Visual Flight Rules
Wind Visibility Clouds
Variable at 2 knots 10,000+ meters
  • Clear skies
Temperatures Readings
Current 17°C / 63°F
Dewpoint 15°C / 59°F
Humidity 88%
Altimeter 30.15" Hg
Pressure 1021 hPa
Elevation 127
METAR EDLW 210520Z VRB02KT CAVOK 17/15 Q1021
Observed Flight Rules
Aug-21 @ 05:20 UTC
(12 hours ago)
VFR
Wind Visibility
Variable at 2 knots 10,000+ meters
Clouds
  • Clear skies
Temperature Dewpoint
17°C / 63°F 15°C / 59°F
Humidity Altimeter Pressure
88% 30.15" Hg 1021 hPa